createdAt,value
2017-08-23T00:00:14.210Z,6.03
2017-08-23T00:02:41.938Z,8.37
2017-08-23T00:05:09.713Z,8.47
2017-08-23T00:07:37.520Z,7.07
2017-08-23T00:10:05.506Z,6.63
2017-08-23T00:12:33.405Z,8.20
2017-08-23T00:15:01.336Z,9.30
2017-08-23T00:17:29.279Z,5.50
2017-08-23T00:19:57.243Z,5.30
2017-08-23T00:22:25.066Z,6.17
2017-08-23T00:24:52.851Z,10.13
2017-08-23T00:27:20.588Z,4.63
2017-08-23T00:29:48.294Z,6.20
2017-08-23T00:32:16.148Z,8.30
2017-08-23T00:34:44.022Z,5.43
2017-08-23T00:37:11.900Z,4.57
2017-08-23T00:39:39.854Z,7.33
2017-08-23T00:42:07.780Z,6.80
2017-08-23T00:44:35.669Z,5.97
2017-08-23T00:47:03.619Z,7.70
2017-08-23T00:49:31.505Z,5.77
2017-08-23T00:51:59.457Z,16.43
2017-08-23T00:54:27.406Z,4.97
2017-08-23T00:56:55.365Z,14.83
2017-08-23T00:59:23.083Z,4.00
2017-08-23T01:01:50.833Z,5.73
2017-08-23T01:04:18.651Z,5.80
2017-08-23T01:06:46.542Z,3.00
2017-08-23T01:09:14.402Z,6.87
2017-08-23T01:11:42.338Z,5.93
2017-08-23T01:14:10.123Z,9.70
2017-08-23T01:16:37.858Z,4.33
2017-08-23T01:19:05.585Z,4.50
2017-08-23T01:21:33.502Z,10.73
2017-08-23T01:24:01.468Z,6.70
2017-08-23T01:26:29.424Z,4.67
2017-08-23T01:28:57.334Z,5.17
2017-08-23T01:31:25.263Z,4.10
2017-08-23T01:33:53.019Z,4.60
2017-08-23T01:36:20.806Z,4.30
2017-08-23T01:38:48.848Z,4.10
2017-08-23T01:41:16.761Z,7.67
2017-08-23T01:43:44.568Z,8.33
2017-08-23T01:46:12.499Z,5.43
2017-08-23T01:48:40.463Z,5.50
2017-08-23T01:51:08.167Z,3.17
2017-08-23T01:53:35.940Z,9.97
2017-08-23T01:56:03.699Z,3.23
2017-08-23T01:58:31.492Z,7.40
2017-08-23T02:00:59.308Z,7.50
2017-08-23T02:03:27.260Z,8.57
2017-08-23T02:05:55.000Z,5.50
2017-08-23T02:08:23.268Z,7.23
2017-08-23T02:10:50.951Z,7.30
2017-08-23T02:13:18.724Z,3.70
2017-08-23T02:15:46.467Z,6.10
2017-08-23T02:18:14.351Z,4.10
2017-08-23T02:20:42.187Z,4.03
2017-08-23T02:23:09.970Z,11.70
2017-08-23T02:25:37.929Z,4.60
2017-08-23T02:28:05.681Z,7.30
2017-08-23T02:30:33.429Z,5.83
2017-08-23T02:33:01.133Z,5.73
2017-08-23T02:35:28.881Z,5.77
2017-08-23T02:37:56.650Z,4.03
2017-08-23T02:40:24.493Z,7.63
2017-08-23T02:42:52.486Z,6.60
2017-08-23T02:45:20.444Z,4.27
2017-08-23T02:47:48.407Z,3.03
2017-08-23T02:50:16.178Z,5.40
2017-08-23T02:52:44.022Z,7.80
2017-08-23T02:55:11.857Z,5.83
2017-08-23T02:57:39.818Z,5.53
2017-08-23T03:00:07.608Z,4.57
2017-08-23T03:02:35.497Z,5.47
2017-08-23T03:05:03.418Z,5.30
2017-08-23T03:07:31.295Z,5.57
2017-08-23T03:09:59.089Z,4.60
2017-08-23T03:12:26.854Z,9.10
2017-08-23T03:14:54.538Z,8.80
2017-08-23T03:17:22.288Z,5.00
2017-08-23T03:19:49.961Z,4.27
2017-08-23T03:22:17.630Z,9.47
2017-08-23T03:24:45.390Z,6.73
2017-08-23T03:27:13.068Z,4.50
2017-08-23T03:29:40.837Z,4.70
2017-08-23T03:32:08.544Z,5.60
2017-08-23T03:34:36.412Z,6.77
2017-08-23T03:37:04.393Z,6.53
2017-08-23T03:39:32.140Z,5.20
2017-08-23T03:41:59.858Z,4.20
2017-08-23T03:44:27.597Z,4.30
2017-08-23T03:46:55.494Z,5.40
2017-08-23T03:49:23.271Z,4.37
2017-08-23T03:51:50.992Z,9.13
2017-08-23T03:54:18.706Z,4.37
2017-08-23T03:56:46.428Z,3.10
2017-08-23T03:59:14.103Z,4.57
2017-08-23T04:01:41.847Z,6.50
2017-08-23T04:04:09.582Z,4.80
2017-08-23T04:06:37.411Z,3.87
2017-08-23T04:09:05.228Z,5.57
2017-08-23T04:11:32.988Z,6.33
2017-08-23T04:14:00.910Z,6.83
2017-08-23T04:16:28.776Z,3.40
2017-08-23T04:18:56.628Z,3.43
2017-08-23T04:21:24.405Z,5.50
2017-08-23T04:23:52.104Z,4.23
2017-08-23T04:26:19.849Z,8.37
2017-08-23T04:28:47.538Z,4.30
2017-08-23T04:31:15.270Z,4.67
2017-08-23T04:33:42.980Z,17.17
2017-08-23T04:36:10.663Z,4.37
2017-08-23T04:38:38.389Z,5.27
2017-08-23T04:41:06.113Z,8.23
2017-08-23T04:43:33.950Z,7.40
2017-08-23T04:46:01.674Z,9.03
2017-08-23T04:48:29.375Z,4.83
2017-08-23T04:50:57.099Z,5.83
2017-08-23T04:53:24.794Z,4.50
2017-08-23T04:55:52.514Z,7.73
2017-08-23T04:58:20.209Z,5.10
2017-08-23T05:00:47.934Z,5.60
2017-08-23T05:03:15.710Z,5.67
2017-08-23T05:05:43.444Z,6.60
2017-08-23T05:08:11.221Z,3.37
2017-08-23T05:10:38.936Z,5.60
2017-08-23T05:13:06.659Z,9.17
2017-08-23T05:15:34.485Z,4.20
2017-08-23T05:18:02.244Z,5.83
2017-08-23T05:20:29.945Z,11.90
2017-08-23T05:22:57.675Z,4.57
2017-08-23T05:25:25.376Z,4.40
2017-08-23T05:27:53.170Z,6.53
2017-08-23T05:30:20.869Z,4.63
2017-08-23T05:32:48.634Z,5.83
2017-08-23T05:35:16.396Z,5.73
2017-08-23T05:37:44.135Z,4.70
2017-08-23T05:40:11.934Z,4.23
2017-08-23T05:42:39.704Z,13.30
2017-08-23T05:45:07.456Z,5.40
2017-08-23T05:47:35.175Z,9.73
2017-08-23T05:50:04.084Z,9.80
2017-08-23T05:52:31.820Z,10.57
2017-08-23T05:54:59.607Z,20.23
2017-08-23T05:57:27.377Z,22.73
2017-08-23T05:59:55.190Z,17.73
2017-08-23T06:02:22.916Z,27.47
2017-08-23T06:04:50.719Z,12.97
2017-08-23T06:07:18.482Z,38.33
2017-08-23T06:09:46.247Z,27.80
2017-08-23T06:12:13.999Z,24.97
2017-08-23T06:14:41.759Z,23.73
2017-08-23T06:17:09.632Z,32.47
2017-08-23T06:19:37.356Z,25.20
2017-08-23T06:22:05.093Z,41.63
2017-08-23T06:24:33.657Z,30.00
2017-08-23T06:27:01.406Z,30.33
2017-08-23T06:29:29.177Z,37.47
2017-08-23T06:31:56.903Z,46.07
2017-08-23T06:34:24.602Z,30.43
2017-08-23T06:36:52.413Z,21.33
2017-08-23T06:39:20.172Z,13.70
2017-08-23T06:41:47.926Z,34.23
2017-08-23T06:44:15.652Z,23.60
2017-08-23T06:46:43.401Z,15.20
2017-08-23T06:49:11.151Z,19.10
2017-08-23T06:51:38.875Z,17.80
2017-08-23T06:54:06.681Z,21.50
2017-08-23T06:56:34.399Z,11.90
2017-08-23T06:59:02.160Z,16.83
2017-08-23T07:01:29.870Z,14.80
2017-08-23T07:03:57.650Z,23.07
2017-08-23T07:06:25.343Z,12.30
2017-08-23T07:08:53.063Z,12.60
2017-08-23T07:11:20.821Z,12.53
2017-08-23T07:13:48.576Z,7.30
2017-08-23T07:16:16.341Z,13.13
2017-08-23T07:18:44.053Z,15.33
2017-08-23T07:21:11.826Z,9.20
2017-08-23T07:23:39.629Z,19.10
2017-08-23T07:26:07.423Z,4.80
2017-08-23T07:28:35.187Z,21.97
2017-08-23T07:31:02.985Z,14.73
2017-08-23T07:33:30.765Z,23.00
2017-08-23T07:35:58.489Z,16.83
2017-08-23T07:38:26.223Z,15.70
2017-08-23T07:40:53.991Z,23.43
2017-08-23T07:43:21.716Z,15.13
2017-08-23T07:45:49.425Z,14.13
2017-08-23T07:48:17.182Z,14.07
2017-08-23T07:50:44.955Z,24.60
2017-08-23T07:53:12.733Z,22.17
2017-08-23T07:55:40.658Z,21.20
2017-08-23T07:58:08.387Z,13.20
2017-08-23T08:00:36.098Z,31.57
2017-08-23T08:03:03.877Z,21.80
2017-08-23T08:05:31.623Z,22.17
2017-08-23T08:07:59.371Z,25.30
2017-08-23T08:10:27.166Z,21.50
2017-08-23T08:12:54.972Z,18.70
2017-08-23T08:15:22.697Z,9.70
2017-08-23T08:17:50.512Z,10.30
2017-08-23T08:20:18.443Z,22.20
2017-08-23T08:22:46.202Z,7.73
2017-08-23T08:25:13.970Z,17.10
2017-08-23T08:27:42.347Z,10.40
2017-08-23T08:30:10.354Z,16.63
2017-08-23T08:32:38.086Z,6.20
2017-08-23T08:35:05.914Z,4.47
2017-08-23T08:37:33.680Z,4.93
2017-08-23T08:40:01.449Z,7.90
2017-08-23T08:42:29.187Z,5.27
2017-08-23T08:44:56.886Z,5.00
2017-08-23T08:47:24.693Z,4.37
2017-08-23T08:49:52.481Z,8.70
2017-08-23T08:52:20.197Z,7.20
2017-08-23T08:54:47.985Z,5.47
2017-08-23T08:57:15.730Z,10.50
2017-08-23T08:59:43.463Z,9.97
2017-08-23T09:02:11.245Z,11.73
2017-08-23T09:04:39.094Z,15.63
2017-08-23T09:07:06.786Z,18.47
2017-08-23T09:09:34.583Z,10.87
2017-08-23T09:12:03.184Z,19.70
2017-08-23T09:14:31.351Z,21.83
2017-08-23T09:16:59.080Z,15.43
2017-08-23T09:19:26.845Z,9.20
2017-08-23T09:21:54.590Z,9.87
2017-08-23T09:24:22.497Z,5.53
2017-08-23T09:26:50.295Z,13.23
2017-08-23T09:29:18.073Z,9.50
2017-08-23T09:31:46.867Z,20.70
2017-08-23T09:34:14.576Z,7.40
2017-08-23T09:36:42.329Z,25.00
2017-08-23T09:39:10.026Z,10.20
2017-08-23T09:41:37.734Z,4.73
2017-08-23T09:44:06.612Z,8.87
2017-08-23T09:46:34.316Z,10.60
2017-08-23T09:49:02.018Z,6.37
2017-08-23T09:51:29.778Z,7.20
2017-08-23T09:53:57.546Z,13.57
2017-08-23T09:56:25.273Z,15.93
2017-08-23T09:58:53.054Z,11.67
2017-08-23T10:01:20.755Z,10.10
2017-08-23T10:03:48.535Z,9.27
2017-08-23T10:06:16.264Z,11.20
2017-08-23T10:08:44.008Z,9.60
2017-08-23T10:11:11.783Z,10.67
2017-08-23T10:13:39.550Z,9.93
2017-08-23T10:16:07.349Z,5.53
2017-08-23T10:18:35.210Z,3.73
2017-08-23T10:21:02.985Z,8.77
2017-08-23T10:23:30.755Z,10.97
2017-08-23T10:25:58.466Z,6.10
2017-08-23T10:28:26.243Z,9.00
2017-08-23T10:30:55.138Z,10.27
2017-08-23T10:33:23.636Z,7.00
2017-08-23T10:35:51.383Z,20.70
2017-08-23T10:38:20.052Z,13.43
2017-08-23T10:40:47.811Z,10.30
2017-08-23T10:43:16.329Z,7.90
2017-08-23T10:45:45.168Z,9.13
2017-08-23T10:48:12.886Z,10.83
2017-08-23T10:50:40.687Z,12.40
2017-08-23T10:53:08.478Z,10.30
2017-08-23T10:55:36.999Z,9.17
2017-08-23T10:58:04.793Z,15.97
2017-08-23T11:00:32.513Z,10.47
2017-08-23T11:03:00.339Z,7.43
2017-08-23T11:05:28.058Z,15.03
2017-08-23T11:07:55.764Z,9.20
2017-08-23T11:10:23.539Z,11.43
2017-08-23T11:12:51.294Z,4.80
2017-08-23T11:15:18.995Z,5.83
2017-08-23T11:17:46.755Z,4.10
2017-08-23T11:20:14.488Z,4.63
2017-08-23T11:22:42.207Z,9.00
2017-08-23T11:25:09.960Z,4.90
2017-08-23T11:27:37.717Z,12.00
2017-08-23T11:30:06.535Z,5.70
2017-08-23T11:32:34.404Z,6.60
2017-08-23T11:35:02.211Z,8.53
2017-08-23T11:37:29.936Z,4.73
2017-08-23T11:39:57.752Z,7.33
2017-08-23T11:42:25.750Z,5.20
2017-08-23T11:44:53.466Z,6.30
2017-08-23T11:47:21.233Z,7.33
2017-08-23T11:49:48.989Z,4.37
2017-08-23T11:52:16.731Z,4.80
2017-08-23T11:54:44.435Z,4.50
2017-08-23T11:57:12.204Z,11.77
2017-08-23T11:59:39.982Z,4.07
2017-08-23T12:02:07.680Z,4.30
2017-08-23T12:04:35.440Z,9.10
2017-08-23T12:07:03.244Z,3.40
2017-08-23T12:09:31.093Z,4.90
2017-08-23T12:11:58.869Z,2.83
2017-08-23T12:14:26.643Z,6.13
2017-08-23T12:16:54.780Z,5.00
2017-08-23T12:19:22.567Z,7.73
2017-08-23T12:21:50.325Z,7.03
2017-08-23T12:24:18.086Z,3.67
2017-08-23T12:26:45.806Z,5.43
2017-08-23T12:29:13.594Z,15.23
2017-08-23T12:31:41.311Z,12.77
2017-08-23T12:34:09.082Z,3.93
2017-08-23T12:36:36.782Z,5.30
2017-08-23T12:39:04.578Z,4.73
2017-08-23T12:41:32.403Z,2.87
2017-08-23T12:44:00.236Z,5.00
2017-08-23T12:46:28.017Z,5.63
2017-08-23T12:48:55.795Z,3.93
2017-08-23T12:51:23.541Z,4.23
2017-08-23T12:53:51.345Z,6.80
2017-08-23T12:56:19.145Z,5.80
2017-08-23T12:58:46.842Z,3.57
2017-08-23T13:01:14.552Z,3.63
2017-08-23T13:03:42.306Z,10.90
2017-08-23T13:06:10.013Z,5.40
2017-08-23T13:08:37.784Z,3.97
2017-08-23T13:11:05.495Z,5.00
2017-08-23T13:13:33.201Z,4.17
2017-08-23T13:16:01.029Z,3.43
2017-08-23T13:18:29.066Z,3.90
2017-08-23T13:20:56.810Z,6.23
2017-08-23T13:23:24.541Z,4.73
2017-08-23T13:25:52.326Z,4.60
2017-08-23T13:28:20.053Z,3.10
2017-08-23T13:30:47.812Z,7.73
2017-08-23T13:33:15.564Z,7.07
2017-08-23T13:35:43.316Z,4.70
2017-08-23T13:38:11.134Z,5.30
2017-08-23T13:40:38.885Z,5.13
2017-08-23T13:43:07.375Z,3.90
2017-08-23T13:45:35.158Z,5.60
2017-08-23T13:48:02.936Z,16.47
2017-08-23T13:50:30.720Z,5.83
2017-08-23T13:52:58.500Z,4.47
2017-08-23T13:55:26.232Z,3.07
2017-08-23T13:57:54.125Z,4.47
2017-08-23T14:00:21.890Z,3.67
2017-08-23T14:02:49.610Z,3.40
2017-08-23T14:05:17.464Z,3.43
2017-08-23T14:07:45.277Z,3.53
2017-08-23T14:10:12.989Z,3.13
2017-08-23T14:12:41.434Z,7.73
2017-08-23T14:15:09.575Z,3.43
2017-08-23T14:17:38.154Z,5.43
2017-08-23T14:20:07.422Z,2.63
2017-08-23T14:22:36.149Z,5.50
2017-08-23T14:25:04.977Z,8.70
2017-08-23T14:27:33.856Z,17.30
2017-08-23T14:30:03.605Z,7.77
2017-08-23T14:32:31.594Z,5.03
2017-08-23T14:35:00.699Z,7.23
2017-08-23T14:37:29.156Z,4.50
2017-08-23T14:39:56.912Z,6.37
2017-08-23T14:42:24.711Z,4.33
2017-08-23T14:44:52.739Z,6.83
2017-08-23T14:47:20.465Z,4.27
2017-08-23T14:49:48.203Z,6.33
2017-08-23T14:52:16.276Z,4.37
2017-08-23T14:54:44.878Z,5.97
2017-08-23T14:57:12.604Z,5.50
2017-08-23T14:59:40.343Z,17.37
2017-08-23T15:02:08.489Z,7.57
2017-08-23T15:04:36.236Z,5.77
2017-08-23T15:07:04.161Z,3.47
2017-08-23T15:09:32.212Z,7.50
2017-08-23T15:11:59.993Z,2.43
2017-08-23T15:14:27.718Z,3.23
2017-08-23T15:16:55.467Z,3.57
2017-08-23T15:19:23.234Z,2.43
2017-08-23T15:21:51.005Z,5.63
2017-08-23T15:24:18.865Z,5.43
2017-08-23T15:26:47.872Z,3.60
2017-08-23T15:29:15.728Z,3.60
2017-08-23T15:31:43.530Z,5.60
2017-08-23T15:34:11.239Z,7.10
2017-08-23T15:36:39.076Z,8.90
2017-08-23T15:39:06.807Z,5.70
2017-08-23T15:41:34.785Z,3.00
2017-08-23T15:44:02.589Z,5.50
2017-08-23T15:46:30.297Z,8.57
2017-08-23T15:48:58.074Z,4.20
2017-08-23T15:51:25.854Z,6.13
2017-08-23T15:53:53.607Z,4.77
2017-08-23T15:56:21.350Z,4.87
2017-08-23T15:58:49.087Z,3.77
2017-08-23T16:01:16.930Z,4.90
2017-08-23T16:03:44.833Z,6.00
2017-08-23T16:06:12.599Z,9.63
2017-08-23T16:08:41.626Z,5.93
2017-08-23T16:11:09.709Z,9.10
2017-08-23T16:13:37.497Z,7.70
2017-08-23T16:16:05.204Z,5.20
2017-08-23T16:18:32.930Z,3.13
2017-08-23T16:21:00.688Z,3.63
2017-08-23T16:23:28.466Z,10.07
2017-08-23T16:25:56.279Z,5.13
2017-08-23T16:28:24.673Z,5.80
2017-08-23T16:30:52.438Z,3.00
2017-08-23T16:33:20.242Z,4.83
2017-08-23T16:35:48.001Z,8.77
2017-08-23T16:38:15.798Z,8.57
2017-08-23T16:40:43.505Z,23.00
2017-08-23T16:43:12.369Z,5.90
2017-08-23T16:45:40.121Z,3.57
2017-08-23T16:48:07.871Z,5.00
2017-08-23T16:50:35.658Z,3.93
2017-08-23T16:53:03.393Z,6.50
2017-08-23T16:55:31.211Z,3.10
2017-08-23T16:57:59.185Z,6.70
2017-08-23T17:00:27.083Z,4.67
2017-08-23T17:02:54.825Z,8.53
2017-08-23T17:05:22.582Z,6.77
2017-08-23T17:07:50.281Z,9.77
2017-08-23T17:10:18.017Z,5.33
2017-08-23T17:12:45.784Z,6.93
2017-08-23T17:15:13.563Z,10.17
2017-08-23T17:17:41.377Z,7.57
2017-08-23T17:20:09.201Z,5.33
2017-08-23T17:22:36.973Z,3.00
2017-08-23T17:25:04.874Z,11.83
2017-08-23T17:27:32.740Z,9.87
2017-08-23T17:30:00.652Z,4.97
2017-08-23T17:32:28.387Z,13.63
2017-08-23T17:34:56.189Z,6.30
2017-08-23T17:37:24.133Z,6.40
2017-08-23T17:39:51.926Z,6.00
2017-08-23T17:42:19.793Z,3.47
2017-08-23T17:44:47.544Z,5.20
2017-08-23T17:47:16.030Z,7.23
2017-08-23T17:49:43.877Z,5.10
2017-08-23T17:52:11.711Z,4.73
2017-08-23T17:54:39.477Z,6.03
2017-08-23T17:57:07.248Z,8.33
2017-08-23T17:59:35.060Z,4.23
2017-08-23T18:02:02.980Z,8.80
2017-08-23T18:04:30.855Z,8.23
2017-08-23T18:06:58.654Z,8.20
2017-08-23T18:09:26.475Z,10.37
2017-08-23T18:11:54.528Z,5.93
2017-08-23T18:14:22.381Z,6.73
2017-08-23T18:16:50.201Z,6.87
2017-08-23T18:19:18.034Z,8.03
2017-08-23T18:21:46.760Z,8.80
2017-08-23T18:24:14.505Z,8.70
2017-08-23T18:26:42.405Z,5.80
2017-08-23T18:29:10.222Z,5.60
2017-08-23T18:31:38.076Z,5.60
2017-08-23T18:34:06.104Z,9.60
2017-08-23T18:36:33.977Z,6.23
2017-08-23T18:39:01.791Z,5.37
2017-08-23T18:41:29.602Z,6.43
2017-08-23T18:43:57.406Z,3.30
2017-08-23T18:46:25.207Z,6.50
2017-08-23T18:48:52.977Z,5.10
2017-08-23T18:51:20.723Z,14.53
2017-08-23T18:53:48.478Z,13.20
2017-08-23T18:56:16.277Z,5.33
2017-08-23T18:58:44.101Z,8.83
2017-08-23T19:01:11.854Z,12.20
2017-08-23T19:03:39.641Z,5.10
2017-08-23T19:06:07.575Z,8.93
2017-08-23T19:08:35.378Z,4.13
2017-08-23T19:11:03.090Z,6.67
2017-08-23T19:13:30.850Z,9.00
2017-08-23T19:15:58.694Z,6.80
2017-08-23T19:18:26.491Z,6.40
2017-08-23T19:20:54.264Z,4.80
2017-08-23T19:23:22.075Z,4.57
2017-08-23T19:25:49.922Z,6.17
2017-08-23T19:28:17.651Z,7.63
2017-08-23T19:30:45.578Z,6.53
2017-08-23T19:33:13.327Z,3.83
2017-08-23T19:35:41.137Z,6.20
2017-08-23T19:38:09.185Z,3.53
2017-08-23T20:16:08.394Z,6.30
2017-08-23T20:18:36.164Z,6.53
2017-08-23T20:21:04.135Z,6.60
2017-08-23T20:23:31.989Z,6.03
2017-08-23T20:26:02.006Z,6.23
2017-08-23T20:28:31.450Z,8.20
2017-08-23T20:30:59.252Z,4.63
2017-08-23T20:33:27.072Z,9.03
2017-08-23T20:35:58.531Z,8.83
2017-08-23T20:38:27.546Z,6.30
2017-08-23T20:40:55.327Z,7.07
2017-08-23T20:43:23.162Z,10.23
2017-08-23T20:45:51.023Z,6.80
2017-08-23T20:48:18.836Z,9.70
2017-08-23T20:50:46.749Z,11.90
2017-08-23T20:53:14.562Z,5.57
2017-08-23T20:55:42.318Z,6.80
2017-08-23T20:58:10.133Z,5.13
2017-08-23T21:00:38.275Z,5.20
2017-08-23T21:03:06.791Z,9.10
2017-08-23T21:05:34.546Z,6.30
2017-08-23T21:08:03.617Z,7.30
2017-08-23T21:10:31.410Z,4.70
2017-08-23T21:13:00.536Z,4.93
2017-08-23T21:15:28.248Z,13.10
2017-08-23T21:17:57.971Z,6.27
2017-08-23T21:20:26.517Z,15.00
2017-08-23T21:22:55.222Z,4.73
2017-08-23T21:25:23.082Z,10.27
2017-08-23T21:27:50.838Z,4.20
2017-08-23T21:30:19.492Z,5.90
2017-08-23T21:32:47.283Z,7.27
2017-08-23T21:35:15.067Z,7.23
2017-08-23T21:37:43.779Z,7.87
2017-08-23T21:40:11.604Z,8.00
2017-08-23T21:42:39.527Z,7.00
2017-08-23T21:45:07.397Z,5.43
2017-08-23T21:47:35.312Z,4.43
2017-08-23T21:50:03.151Z,7.63
2017-08-23T21:52:30.862Z,5.50
2017-08-23T21:54:58.595Z,5.90
2017-08-23T21:57:26.381Z,4.73
2017-08-23T21:59:54.176Z,6.70
2017-08-23T22:02:22.023Z,4.80
2017-08-23T22:04:49.864Z,8.27
2017-08-23T22:07:17.732Z,6.60
2017-08-23T22:09:45.822Z,8.73
2017-08-23T22:12:14.472Z,4.90
2017-08-23T22:14:42.188Z,6.13
2017-08-23T22:17:10.055Z,7.37
2017-08-23T22:19:37.795Z,8.23
2017-08-23T22:22:05.614Z,9.37
2017-08-23T22:24:33.423Z,6.37
2017-08-23T22:27:01.306Z,6.23
2017-08-23T22:29:29.050Z,4.43
2017-08-23T22:31:56.839Z,13.30
2017-08-23T22:34:24.623Z,6.80
2017-08-23T22:36:52.339Z,11.27
2017-08-23T22:39:20.243Z,4.57
2017-08-23T22:41:48.040Z,5.60
2017-08-23T22:44:15.831Z,5.37
2017-08-23T22:46:43.557Z,4.90
2017-08-23T22:49:11.373Z,9.87
2017-08-23T22:51:39.165Z,8.70
2017-08-23T22:54:06.891Z,6.87
2017-08-23T22:56:34.668Z,8.73
2017-08-23T22:59:02.504Z,5.47
2017-08-23T23:01:30.248Z,6.30
2017-08-23T23:03:57.995Z,5.43
2017-08-23T23:06:25.810Z,5.67
2017-08-23T23:08:53.532Z,6.70
2017-08-23T23:11:22.127Z,5.20
2017-08-23T23:13:49.861Z,5.30
2017-08-23T23:16:17.712Z,13.60
2017-08-23T23:18:45.525Z,10.67
2017-08-23T23:21:13.364Z,11.60
2017-08-23T23:23:41.116Z,7.33
2017-08-23T23:26:08.864Z,7.17
2017-08-23T23:28:36.643Z,7.87
2017-08-23T23:31:17.459Z,7.67
2017-08-23T23:33:45.487Z,9.83
2017-08-23T23:36:13.216Z,10.70
2017-08-23T23:38:40.995Z,7.40
2017-08-23T23:41:09.725Z,6.13
2017-08-23T23:43:37.465Z,5.37
2017-08-23T23:46:06.459Z,12.30
2017-08-23T23:48:34.889Z,5.10
2017-08-23T23:51:02.645Z,5.50
2017-08-23T23:53:30.458Z,5.80
2017-08-23T23:56:00.018Z,6.47
2017-08-23T23:58:28.871Z,6.00
